Time;durP1;ratioP1;P1;durP2;ratioP2;P2;SDS_P1;SDS_P2;PMS_P1;PMS_P2;Temp;Humidity;BMP_temperature;BMP_pressure;BME280_temperature;BME280_humidity;BME280_pressure;Samples;Min_cycle;Max_cycle;Signal;HPM_P1;HPM_P2
2021/03/11 00:02:03;;;;;;;97.13;44.80;;;;;;;0.49;52.71;100387.03;4864222;28;102219;-77
2021/03/11 00:04:28;;;;;;;96.27;44.87;;;;;;;0.41;52.87;100381.81;4878781;28;100027;-77
2021/03/11 00:06:54;;;;;;;100.53;45.03;;;;;;;0.34;53.51;100392.94;4877057;28;96705;-78
2021/03/11 00:09:20;;;;;;;95.43;43.60;;;;;;;0.35;53.28;100394.69;4885421;28;96813;-79
2021/03/11 00:11:45;;;;;;;90.77;44.00;;;;;;;0.40;53.47;100392.97;4863881;28;101324;-80
2021/03/11 00:14:11;;;;;;;99.60;44.03;;;;;;;0.27;53.29;100391.16;4850894;29;98994;-80
2021/03/11 00:16:36;;;;;;;102.83;47.87;;;;;;;0.25;54.00;100376.50;4854198;28;97566;-79
2021/03/11 00:19:02;;;;;;;100.30;44.33;;;;;;;0.22;54.19;100367.88;4877338;28;97207;-78
2021/03/11 00:21:27;;;;;;;98.63;44.40;;;;;;;0.18;54.45;100371.28;4878460;28;97604;-78
2021/03/11 00:23:53;;;;;;;95.33;45.70;;;;;;;0.18;54.15;100363.53;4879594;28;101150;-79
2021/03/11 00:26:19;;;;;;;99.63;45.27;;;;;;;0.08;54.46;100360.84;4878892;28;97019;-79
2021/03/11 00:28:44;;;;;;;96.97;47.07;;;;;;;0.08;55.09;100342.78;4880093;28;96890;-77
2021/03/11 00:31:10;;;;;;;110.53;48.10;;;;;;;0.09;55.13;100358.31;4879303;28;97500;-78
2021/03/11 00:33:35;;;;;;;100.43;46.93;;;;;;;0.02;55.23;100347.91;4879691;28;97378;-77
2021/03/11 00:36:01;;;;;;;98.00;46.40;;;;;;;0.12;55.50;100350.59;4864800;28;97162;-78
2021/03/11 00:38:27;;;;;;;102.97;47.87;;;;;;;0.19;55.78;100343.75;4877749;28;97160;-77
2021/03/11 00:40:52;;;;;;;105.90;48.07;;;;;;;0.13;55.31;100341.13;4862597;28;101404;-77
2021/03/11 00:43:18;;;;;;;100.13;47.77;;;;;;;0.00;55.77;100340.16;4879111;28;100960;-78
2021/03/11 00:45:47;;;;;;;107.10;48.87;;;;;;;0.02;56.13;100333.25;4878946;28;97254;-79
2021/03/11 00:48:13;;;;;;;107.37;48.93;;;;;;;-0.04;56.38;100322.91;4879151;28;97127;-79
2021/03/11 00:50:39;;;;;;;105.43;48.73;;;;;;;-0.05;56.58;100329.78;4862784;28;101390;-77
2021/03/11 00:53:05;;;;;;;109.17;52.07;;;;;;;-0.05;56.97;100318.59;4870852;28;100848;-77
2021/03/11 00:55:31;;;;;;;102.20;48.20;;;;;;;-0.09;57.42;100325.44;4859284;28;96818;-79
2021/03/11 00:57:57;;;;;;;112.00;49.70;;;;;;;-0.13;57.35;100322.81;4876381;28;97568;-78
2021/03/11 01:00:26;;;;;;;110.87;50.43;;;;;;;-0.09;57.60;100320.28;4857447;28;101266;-78
2021/03/11 01:02:58;;;;;;;108.83;49.87;;;;;;;0.02;57.42;100320.38;4846448;28;101124;-77
2021/03/11 01:05:30;;;;;;;;;;;;;;;-0.08;57.73;100318.56;4860711;28;96906;-79
2021/03/11 01:08:01;;;;;;;112.17;49.43;;;;;;;-0.13;57.68;100315.94;4846259;28;96808;-76
2021/03/11 01:10:27;;;;;;;103.23;47.37;;;;;;;-0.02;57.95;100309.16;4867453;28;97532;-79
2021/03/11 01:12:53;;;;;;;104.23;46.43;;;;;;;-0.07;57.78;100286.72;4872029;28;101396;-77
2021/03/11 01:15:19;;;;;;;105.50;47.13;;;;;;;-0.10;58.22;100295.31;4888373;28;96898;-79
2021/03/11 01:17:44;;;;;;;105.43;46.73;;;;;;;-0.13;58.03;100292.72;4860324;28;97019;-77
2021/03/11 01:20:17;;;;;;;96.03;46.13;;;;;;;-0.16;57.99;100294.41;4871782;28;101371;-84
2021/03/11 01:22:42;;;;;;;;;;;;;;;-0.06;58.22;100294.50;4844356;28;99546;-77
2021/03/11 01:25:08;;;;;;;98.13;44.73;;;;;;;0.03;57.50;100283.41;4875444;28;96639;-82
2021/03/11 01:27:34;;;;;;;104.10;44.63;;;;;;;0.13;57.49;100287.75;4860127;28;96865;-79
2021/03/11 01:30:01;;;;;;;100.83;44.17;;;;;;;0.23;56.70;100288.69;4853516;29;100698;-77
2021/03/11 01:32:26;;;;;;;87.73;41.40;;;;;;;0.13;57.08;100281.75;4853097;28;100698;-77
2021/03/11 01:34:52;;;;;;;97.87;43.60;;;;;;;0.09;57.35;100272.22;4865840;28;96983;-79
2021/03/11 01:37:18;;;;;;;90.00;43.37;;;;;;;0.25;57.20;100279.25;4865371;28;96799;-78
2021/03/11 01:39:43;;;;;;;89.87;41.83;;;;;;;0.15;57.19;100267.13;4850532;28;101107;-77
2021/03/11 01:42:09;;;;;;;96.07;42.43;;;;;;;0.22;57.12;100272.34;4878474;28;98498;-82
2021/03/11 01:44:34;;;;;;;92.43;41.50;;;;;;;0.18;57.43;100260.28;4881907;28;96730;-77
2021/03/11 01:47:00;;;;;;;89.73;42.60;;;;;;;0.19;57.33;100263.72;4894171;28;96934;-77
2021/03/11 01:49:25;;;;;;;88.93;43.57;;;;;;;0.21;57.47;100251.69;4858813;28;101366;-77
2021/03/11 01:51:52;;;;;;;86.97;40.10;;;;;;;0.24;57.59;100238.78;4859594;28;101161;-79
2021/03/11 01:54:18;;;;;;;92.67;43.03;;;;;;;0.16;57.83;100231.00;4880829;28;97221;-79
2021/03/11 01:56:44;;;;;;;93.63;43.83;;;;;;;0.09;58.31;100226.66;4866826;28;96845;-77
2021/03/11 01:59:10;;;;;;;89.57;42.63;;;;;;;0.02;58.69;100227.44;4855402;28;101810;-81
2021/03/11 02:01:36;;;;;;;92.30;43.43;;;;;;;0.06;58.41;100220.59;4871180;28;101283;-77
2021/03/11 02:04:01;;;;;;;95.57;43.33;;;;;;;0.13;58.40;100214.63;4859142;28;96746;-79
2021/03/11 02:06:27;;;;;;;90.53;42.73;;;;;;;0.14;58.23;100206.00;4858264;28;97628;-78
2021/03/11 02:08:52;;;;;;;85.50;42.47;;;;;;;0.19;58.11;100205.19;4859128;28;100873;-77
2021/03/11 02:11:23;;;;;;;93.57;44.40;;;;;;;0.21;57.99;100200.91;4855611;29;97427;-77
2021/03/11 02:14:08;;;;;;;90.03;43.13;;;;;;;0.18;58.36;100202.63;4855856;29;96703;-79
2021/03/11 02:16:47;;;;;;;89.20;43.07;;;;;;;0.16;58.61;100194.84;4861274;28;97069;-79
2021/03/11 02:19:35;;;;;;;89.60;43.97;;;;;;;0.15;58.57;100189.69;4861621;28;100929;-82
2021/03/11 02:22:22;;;;;;;81.20;40.53;;;;;;;0.20;58.60;100191.44;4838610;28;100948;-77
2021/03/11 02:25:06;;;;;;;90.83;42.73;;;;;;;0.08;58.40;100180.16;4861284;28;97155;-77
2021/03/11 02:27:56;;;;;;;85.30;43.93;;;;;;;0.15;58.23;100175.06;4877410;28;97189;-76
2021/03/11 02:30:22;;;;;;;84.90;42.93;;;;;;;0.19;58.41;100171.63;4864379;28;98172;-77
2021/03/11 02:32:48;;;;;;;90.40;43.40;;;;;;;0.33;57.71;100178.59;4858324;28;101235;-77
2021/03/11 02:35:14;;;;;;;83.97;41.03;;;;;;;0.28;58.14;100178.56;4867509;28;97282;-78
2021/03/11 02:37:49;;;;;;;93.27;43.00;;;;;;;0.39;57.72;100181.22;4875426;28;96843;-76
2021/03/11 02:40:23;;;;;;;94.17;43.43;;;;;;;0.30;57.84;100176.88;4874630;28;101450;-79
2021/03/11 02:42:50;;;;;;;88.23;40.67;;;;;;;0.26;58.04;100166.50;4877837;28;100842;-77
2021/03/11 02:45:18;;;;;;;90.10;41.70;;;;;;;0.24;58.56;100182.00;4848363;28;96738;-79
2021/03/11 02:47:44;;;;;;;89.63;43.00;;;;;;;0.30;57.91;100178.59;4866188;28;96992;-77
2021/03/11 02:50:11;;;;;;;87.30;42.87;;;;;;;0.30;58.31;100171.69;4877008;28;101267;-78
2021/03/11 02:52:37;;;;;;;85.17;42.00;;;;;;;0.25;57.78;100157.88;4875269;28;97781;-78
2021/03/11 02:55:04;;;;;;;84.03;43.10;;;;;;;0.24;58.27;100160.47;4874624;28;96922;-78
2021/03/11 02:57:30;;;;;;;91.90;43.37;;;;;;;0.17;58.33;100149.22;4860160;28;96729;-78
2021/03/11 02:59:57;;;;;;;89.93;43.33;;;;;;;0.11;58.75;100157.81;4882201;28;97930;-77
2021/03/11 03:02:25;;;;;;;86.93;42.03;;;;;;;0.09;58.91;100151.78;4857775;28;101448;-78
2021/03/11 03:04:53;;;;;;;90.33;42.37;;;;;;;0.17;58.40;100150.09;4858545;28;96690;-77
2021/03/11 03:07:19;;;;;;;86.43;41.97;;;;;;;0.17;58.48;100139.75;4858189;28;97019;-77
2021/03/11 03:09:51;;;;;;;80.63;39.13;;;;;;;0.19;58.48;100143.22;4858167;28;100875;-81
2021/03/11 03:12:18;;;;;;;80.43;39.97;;;;;;;0.12;58.53;100140.63;4853729;28;100969;-77
2021/03/11 03:14:45;;;;;;;87.20;40.20;;;;;;;0.11;58.63;100144.03;4857715;28;96994;-78
2021/03/11 03:17:13;;;;;;;89.30;42.10;;;;;;;0.15;58.40;100138.91;4860818;28;97149;-83
2021/03/11 03:19:39;;;;;;;81.73;41.37;;;;;;;0.13;58.71;100129.44;4860861;28;97864;-77
2021/03/11 03:22:06;;;;;;;83.33;39.43;;;;;;;0.16;58.45;100116.53;4850090;28;101096;-76
2021/03/11 03:24:32;;;;;;;80.40;39.03;;;;;;;0.15;58.65;100114.81;4846191;28;97148;-78
2021/03/11 03:26:58;;;;;;;83.23;39.77;;;;;;;0.14;58.79;100113.94;4880593;28;96926;-77
2021/03/11 03:29:23;;;;;;;79.33;40.20;;;;;;;-0.05;59.18;100112.13;4863822;28;100994;-76
2021/03/11 03:31:49;;;;;;;82.93;39.47;;;;;;;-0.21;59.59;100110.31;4873171;28;98262;-77
2021/03/11 03:34:15;;;;;;;80.60;38.93;;;;;;;-0.06;59.25;100112.97;4876380;28;97928;-81
2021/03/11 03:36:40;;;;;;;78.00;36.67;;;;;;;-0.07;58.86;100104.38;4861731;28;97257;-77
2021/03/11 03:39:06;;;;;;;75.37;38.67;;;;;;;-0.19;59.37;100093.97;4844146;28;101687;-77
2021/03/11 03:41:35;;;;;;;81.70;38.77;;;;;;;-0.21;59.73;100093.09;4849153;28;100941;-77
2021/03/11 03:44:02;;;;;;;80.13;38.70;;;;;;;-0.31;59.81;100073.28;4860979;28;97385;-76
2021/03/11 03:46:28;;;;;;;78.37;36.10;;;;;;;-0.40;60.00;100063.75;4861083;28;97072;-76
2021/03/11 03:48:57;;;;;;;67.90;34.87;;;;;;;-0.38;59.64;100069.78;4860925;28;101453;-78
2021/03/11 03:51:26;;;;;;;71.53;35.93;;;;;;;-0.33;59.95;100060.34;4860376;28;100952;-77
2021/03/11 03:53:53;;;;;;;68.10;35.70;;;;;;;-0.42;59.73;100046.56;4845244;28;97286;-78
2021/03/11 03:56:29;;;;;;;68.80;35.47;;;;;;;-0.40;59.91;100053.44;4861122;28;96872;-77
2021/03/11 03:59:03;;;;;;;71.33;34.93;;;;;;;-0.35;59.77;100056.94;4860915;28;101578;-76
2021/03/11 04:01:31;;;;;;;67.37;34.50;;;;;;;-0.18;59.04;100049.25;4860403;28;100823;-77
2021/03/11 04:04:01;;;;;;;67.07;34.53;;;;;;;-0.13;59.18;100055.31;4881146;28;96755;-77
2021/03/11 04:06:26;;;;;;;71.70;34.70;;;;;;;-0.11;59.16;100050.16;4879559;28;96831;-76
2021/03/11 04:08:52;;;;;;;68.93;34.30;;;;;;;-0.22;59.29;100034.63;4895865;28;98039;-76
2021/03/11 04:11:19;;;;;;;67.77;33.43;;;;;;;-0.16;59.11;100033.81;4866847;28;100830;-77
2021/03/11 04:13:46;;;;;;;63.77;32.50;;;;;;;-0.16;59.15;100026.91;4861311;28;97062;-79
2021/03/11 04:16:14;;;;;;;72.60;33.23;;;;;;;-0.14;58.63;100011.47;4856347;28;97160;-78
2021/03/11 04:18:40;;;;;;;63.57;34.23;;;;;;;-0.22;59.03;100002.81;4860654;28;98508;-78
2021/03/11 04:21:06;;;;;;;66.00;33.23;;;;;;;-0.11;59.06;99990.81;4833224;29;100959;-77
2021/03/11 04:23:34;;;;;;;72.87;32.93;;;;;;;-0.18;59.03;99989.91;4848149;28;96971;-77
2021/03/11 04:26:00;;;;;;;64.57;31.70;;;;;;;-0.17;59.15;99989.09;4889438;28;96766;-79
2021/03/11 04:28:26;;;;;;;67.80;33.83;;;;;;;-0.22;59.05;99995.06;4858981;28;97549;-77
2021/03/11 04:30:51;;;;;;;64.30;32.50;;;;;;;-0.20;59.62;99983.03;4860060;28;101197;-80
2021/03/11 04:33:17;;;;;;;70.30;32.90;;;;;;;-0.24;59.48;99983.00;4859908;28;97294;-86
2021/03/11 04:35:42;;;;;;;59.07;32.70;;;;;;;-0.18;59.55;99989.06;4860399;28;97065;-77
2021/03/11 04:38:08;;;;;;;64.60;31.43;;;;;;;-0.22;58.98;99995.94;4863397;28;100629;-77
2021/03/11 04:40:34;;;;;;;60.50;30.77;;;;;;;-0.10;58.94;99982.22;4844423;28;101342;-78
2021/03/11 04:43:00;;;;;;;65.73;31.57;;;;;;;-0.17;59.16;99994.25;4861486;28;96683;-77
2021/03/11 04:45:26;;;;;;;58.17;32.30;;;;;;;-0.17;58.85;99990.81;4860348;28;97037;-78
2021/03/11 04:47:52;;;;;;;58.93;29.77;;;;;;;-0.11;59.29;99983.09;4860173;28;101588;-80
2021/03/11 04:50:17;;;;;;;58.03;29.47;;;;;;;-0.18;58.73;99971.84;4859477;28;101224;-81
2021/03/11 04:52:44;;;;;;;57.17;29.47;;;;;;;-0.01;58.94;99972.78;4878032;28;97216;-77
2021/03/11 04:55:10;;;;;;;55.20;29.43;;;;;;;0.12;58.77;99970.25;4863436;28;96979;-78
2021/03/11 04:57:36;;;;;;;57.00;30.63;;;;;;;0.14;58.29;99961.63;4872666;28;97395;-77
2021/03/11 05:00:04;;;;;;;56.87;28.77;;;;;;;0.14;58.14;99961.63;4872518;28;100870;-78
2021/03/11 05:02:31;;;;;;;56.30;30.73;;;;;;;0.26;57.65;99952.19;4878503;28;96998;-78
2021/03/11 05:04:58;;;;;;;57.53;29.23;;;;;;;0.27;57.56;99946.19;4863243;28;97594;-77
2021/03/11 05:07:23;;;;;;;54.37;28.97;;;;;;;0.25;57.63;99950.50;4878075;28;99865;-79
2021/03/11 05:09:49;;;;;;;53.23;28.70;;;;;;;0.34;57.22;99941.03;4862730;28;100492;-78
2021/03/11 05:12:14;;;;;;;47.57;26.27;;;;;;;0.34;57.11;99945.34;4895425;28;96672;-85
2021/03/11 05:14:40;;;;;;;50.10;27.40;;;;;;;0.36;56.75;99934.16;4877624;28;96855;-78
2021/03/11 05:17:05;;;;;;;54.60;26.80;;;;;;;0.28;57.12;99932.41;4865829;28;101106;-78
2021/03/11 05:19:31;;;;;;;49.37;26.87;;;;;;;0.31;57.34;99924.69;4877920;28;101171;-77
2021/03/11 05:21:59;;;;;;;51.43;25.73;;;;;;;0.24;57.04;99922.97;4860054;28;96998;-77
2021/03/11 05:24:24;;;;;;;53.33;28.10;;;;;;;0.30;56.94;99917.81;4856048;28;96992;-80
2021/03/11 05:26:50;;;;;;;46.27;26.03;;;;;;;0.35;56.83;99922.09;4859553;28;101574;-78
2021/03/11 05:29:15;;;;;;;50.30;27.40;;;;;;;0.28;56.90;99911.75;4859514;28;101258;-82
2021/03/11 05:31:41;;;;;;;52.73;26.93;;;;;;;0.25;56.65;99906.59;4875485;28;96647;-77
2021/03/11 05:34:06;;;;;;;53.33;27.03;;;;;;;0.33;56.52;99910.91;4872516;28;96794;-76
2021/03/11 05:36:32;;;;;;;53.00;26.37;;;;;;;0.36;56.60;99899.72;4877817;28;101151;-77
2021/03/11 05:39:01;;;;;;;46.87;25.77;;;;;;;0.27;56.79;99890.25;4862203;28;100893;-77
2021/03/11 05:41:27;;;;;;;49.80;27.00;;;;;;;0.19;57.01;99877.31;4861405;28;96862;-78
2021/03/11 05:43:53;;;;;;;46.17;26.67;;;;;;;0.25;56.76;99879.06;4878386;28;97093;-78
2021/03/11 05:46:19;;;;;;;52.43;27.17;;;;;;;0.45;56.42;99868.72;4893804;28;101091;-78
2021/03/11 05:48:45;;;;;;;49.50;27.93;;;;;;;0.50;56.46;99871.31;4893043;28;97317;-77
2021/03/11 05:51:11;;;;;;;49.43;27.53;;;;;;;0.42;56.69;99866.16;4865550;28;97066;-78
2021/03/11 05:53:38;;;;;;;52.63;25.93;;;;;;;0.40;56.61;99858.38;4878571;28;97175;-77
2021/03/11 05:56:04;;;;;;;47.47;27.17;;;;;;;0.48;56.18;99845.47;4888120;28;97963;-79
2021/03/11 05:58:30;;;;;;;50.47;27.20;;;;;;;0.50;56.36;99838.59;4840045;29;100381;-79
2021/03/11 06:00:55;;;;;;;47.90;26.50;;;;;;;0.55;56.15;99841.16;4859187;28;96670;-79
2021/03/11 06:03:24;;;;;;;53.83;26.03;;;;;;;0.52;56.17;99834.28;4858616;28;96956;-79
2021/03/11 06:05:50;;;;;;;53.50;26.83;;;;;;;0.58;56.12;99833.41;4858155;28;101109;-79
2021/03/11 06:08:16;;;;;;;46.03;26.90;;;;;;;0.52;55.97;99820.50;4868132;28;97838;-82
2021/03/11 06:10:42;;;;;;;54.33;26.43;;;;;;;0.74;55.52;99811.00;4869781;28;96566;-77
2021/03/11 06:13:08;;;;;;;55.73;25.83;;;;;;;0.69;55.68;99813.59;4845193;28;96970;-81
2021/03/11 06:15:38;;;;;;;49.20;24.53;;;;;;;0.78;55.60;99816.16;4856170;28;97771;-78
2021/03/11 06:18:05;;;;;;;45.43;23.83;;;;;;;0.75;55.60;99802.38;4843383;28;99456;-79
2021/03/11 06:20:30;;;;;;;48.43;25.17;;;;;;;0.85;54.84;99812.72;4866369;28;96650;-80
2021/03/11 06:22:56;;;;;;;46.93;26.30;;;;;;;0.80;55.32;99808.41;4878567;28;98696;-78
2021/03/11 06:25:22;;;;;;;45.20;24.67;;;;;;;0.80;55.54;99800.66;4872200;28;97991;-79
2021/03/11 06:27:47;;;;;;;45.93;24.00;;;;;;;0.88;55.34;99792.03;4856270;28;101288;-79
2021/03/11 06:30:37;;;;;;;48.10;23.90;;;;;;;1.04;54.78;99787.66;4863940;28;96704;-80
2021/03/11 06:33:04;;;;;;;39.97;22.33;;;;;;;1.18;54.30;99790.19;4859143;28;97243;-78
2021/03/11 06:35:30;;;;;;;47.63;24.27;;;;;;;1.21;54.13;99784.13;4839777;28;101341;-79
2021/03/11 06:37:56;;;;;;;47.60;24.10;;;;;;;1.27;54.47;99771.19;4852294;29;101401;-77
2021/03/11 06:40:24;;;;;;;46.97;24.60;;;;;;;1.19;54.17;99778.97;4852134;28;97344;-77
2021/03/11 06:42:51;;;;;;;48.43;25.07;;;;;;;1.30;53.99;99776.34;4856934;28;96871;-79
2021/03/11 06:45:25;;;;;;;54.37;26.27;;;;;;;1.31;54.13;99766.00;4860848;28;98076;-85
2021/03/11 06:47:53;;;;;;;48.77;25.33;;;;;;;1.29;54.15;99766.88;4855731;28;101741;-77
2021/03/11 06:50:21;;;;;;;49.97;25.63;;;;;;;1.32;54.28;99762.53;4844493;28;96996;-79
2021/03/11 06:53:01;;;;;;;48.03;24.27;;;;;;;1.34;54.43;99762.53;4856752;28;97139;-78
2021/03/11 06:55:26;;;;;;;54.40;26.37;;;;;;;1.40;54.31;99756.44;4845127;28;100025;-79
2021/03/11 06:57:52;;;;;;;46.27;23.60;;;;;;;1.38;54.35;99747.84;4855207;28;101077;-77
2021/03/11 07:00:20;;;;;;;43.80;24.87;;;;;;;1.39;54.72;99741.81;4862177;28;97455;-87
2021/03/11 07:02:52;;;;;;;47.27;24.40;;;;;;;1.45;54.24;99736.59;4841320;28;97370;-78
2021/03/11 07:05:18;;;;;;;41.90;23.25;;;;;;;1.43;54.40;99728.84;4899455;28;98524;-77
2021/03/11 07:07:45;;;;;;;49.50;24.37;;;;;;;1.46;54.08;99726.25;4879618;28;100921;-77
2021/03/11 07:10:24;;;;;;;43.40;23.43;;;;;;;1.62;54.00;99711.47;4875008;28;96844;-78
2021/03/11 07:12:55;;;;;;;45.43;23.87;;;;;;;1.79;53.84;99711.34;4880053;28;96823;-76
2021/03/11 07:15:22;;;;;;;40.57;22.60;;;;;;;1.90;53.76;99706.09;4862982;28;98048;-77
2021/03/11 07:17:49;;;;;;;39.97;23.03;;;;;;;2.00;53.51;99703.38;4861772;28;101013;-78
2021/03/11 07:20:26;;;;;;;39.13;22.37;;;;;;;1.97;53.19;99699.97;4861831;28;97314;-77
2021/03/11 07:23:10;;;;;;;40.10;22.50;;;;;;;2.10;53.19;99700.72;4861847;28;97482;-78
2021/03/11 07:25:40;;;;;;;43.90;23.63;;;;;;;2.02;53.23;99699.06;4860990;28;99554;-78
2021/03/11 07:28:30;;;;;;;41.77;22.77;;;;;;;2.02;53.35;99690.44;4861786;28;101435;-78
2021/03/11 07:31:00;;;;;;;58.23;22.50;;;;;;;2.03;53.58;99674.88;4875336;28;97390;-76
2021/03/11 07:33:27;;;;;;;40.00;21.73;;;;;;;2.14;53.20;99679.09;4859613;28;96906;-76
2021/03/11 07:35:55;;;;;;;42.83;20.93;;;;;;;2.22;52.46;99672.13;4861115;28;101172;-78
2021/03/11 07:38:22;;;;;;;42.67;21.17;;;;;;;2.23;52.87;99666.06;4840964;28;101091;-82
2021/03/11 07:40:53;;;;;;;43.73;22.03;;;;;;;2.14;53.09;99673.91;4856330;28;96856;-80
2021/03/11 07:43:19;;;;;;;39.90;21.07;;;;;;;2.36;52.72;99678.00;4871768;28;97213;-78
2021/03/11 07:45:45;;;;;;;47.23;21.23;;;;;;;2.39;53.07;99667.63;4874662;28;98951;-77
2021/03/11 07:48:15;;;;;;;43.37;21.43;;;;;;;2.52;52.53;99668.31;4860739;28;97809;-79
2021/03/11 07:50:43;;;;;;;36.97;21.30;;;;;;;2.56;53.12;99674.31;4861144;28;96807;-76
2021/03/11 07:53:08;;;;;;;36.73;21.90;;;;;;;2.47;53.27;99654.56;4875094;28;96803;-77
2021/03/11 07:55:35;;;;;;;37.97;21.70;;;;;;;2.50;53.03;99657.09;4860329;28;101003;-77
2021/03/11 07:58:12;;;;;;;40.77;22.97;;;;;;;2.41;54.02;99658.06;4857587;28;101445;-76
2021/03/11 08:00:38;;;;;;;38.30;22.30;;;;;;;2.38;54.28;99647.75;4857688;28;97936;-77
2021/03/11 08:03:11;;;;;;;39.47;21.30;;;;;;;2.40;54.49;99639.97;4841486;28;96994;-76
2021/03/11 08:05:36;;;;;;;40.87;20.23;;;;;;;2.49;54.32;99629.50;4871611;28;98173;-76
2021/03/11 08:08:19;;;;;;;40.97;21.13;;;;;;;2.60;54.20;99621.59;4875408;28;97364;-80
2021/03/11 08:10:53;;;;;;;47.57;25.90;;;;;;;2.60;54.15;99630.22;4856622;28;96811;-82
2021/03/11 08:13:35;;;;;;;42.67;24.30;;;;;;;2.62;53.89;99620.72;4878962;28;97882;-77
2021/03/11 08:16:07;;;;;;;45.47;20.80;;;;;;;2.77;54.36;99622.25;4855576;28;101945;-78
2021/03/11 08:18:32;;;;;;;38.78;21.83;;;;;;;2.89;53.84;99613.44;4870398;28;99167;-77
2021/03/11 08:21:18;;;;;;;39.23;22.80;;;;;;;3.01;53.61;99617.59;4868388;28;97566;-78
2021/03/11 08:23:44;;;;;;;38.67;21.83;;;;;;;3.11;53.59;99604.47;4867384;28;97286;-78
2021/03/11 08:26:09;;;;;;;35.27;21.03;;;;;;;3.14;53.49;99596.66;4843492;28;101361;-78
2021/03/11 08:28:36;;;;;;;45.27;23.10;;;;;;;3.21;53.56;99596.53;4858308;28;101489;-77
2021/03/11 08:31:03;;;;;;;41.00;23.00;;;;;;;3.27;53.68;99591.25;4844254;28;96898;-77
2021/03/11 08:33:29;;;;;;;42.13;22.17;;;;;;;3.30;53.51;99573.91;4868694;28;96753;-75
2021/03/11 08:35:57;;;;;;;41.43;22.20;;;;;;;3.39;54.26;99563.38;4893259;28;101312;-76
2021/03/11 08:38:22;;;;;;;42.67;23.10;;;;;;;3.50;54.06;99555.41;4859510;28;100638;-78
2021/03/11 08:41:09;;;;;;;38.80;22.53;;;;;;;3.53;54.17;99551.91;4863234;28;96793;-75
2021/03/11 08:43:34;;;;;;;39.70;22.47;;;;;;;3.58;54.19;99547.50;4866023;28;96706;-78
2021/03/11 08:46:01;;;;;;;41.97;23.17;;;;;;;3.55;54.42;99531.94;4858845;28;101233;-80
2021/03/11 08:48:39;;;;;;;41.43;22.57;;;;;;;3.62;54.86;99520.59;4854615;28;102021;-79
2021/03/11 08:51:05;;;;;;;42.00;23.17;;;;;;;3.71;54.48;99516.97;4846594;28;96943;-77
2021/03/11 08:53:37;;;;;;;42.50;22.63;;;;;;;3.75;54.79;99524.69;4859609;28;96860;-79
2021/03/11 08:56:18;;;;;;;40.78;23.50;;;;;;;3.65;54.95;99530.91;4871993;28;100355;-80
2021/03/11 08:58:57;;;;;;;45.77;23.13;;;;;;;3.64;55.49;99511.03;4852889;28;101137;-81
2021/03/11 09:01:44;;;;;;;42.40;23.37;;;;;;;3.73;55.27;99494.44;4871078;28;97533;-82
2021/03/11 09:04:23;;;;;;;43.33;24.93;;;;;;;3.71;55.32;99485.81;4870129;28;96844;-80
2021/03/11 09:06:54;;;;;;;43.67;23.87;;;;;;;3.69;55.94;99485.84;4854901;28;101580;-80
2021/03/11 09:09:49;;;;;;;44.28;24.02;;;;;;;3.74;55.64;99460.66;4861838;28;101882;-80
2021/03/11 09:12:35;;;;;;;47.80;23.70;;;;;;;3.75;55.94;99451.13;4872806;28;96786;-82
2021/03/11 09:15:05;;;;;;;40.10;22.13;;;;;;;3.84;55.87;99456.16;4861221;28;97091;-78
2021/03/11 09:17:32;;;;;;;37.77;21.67;;;;;;;3.98;55.97;99446.31;4843335;28;101622;-78
2021/03/11 09:20:12;;;;;;;35.33;21.37;;;;;;;3.99;56.27;99449.78;4840294;29;101010;-79
2021/03/11 09:22:47;;;;;;;35.57;21.30;;;;;;;4.15;55.30;99447.69;4859023;28;97055;-79
2021/03/11 09:25:23;;;;;;;42.27;22.70;;;;;;;4.17;55.42;99449.38;4853803;28;98018;-78
2021/03/11 09:28:06;;;;;;;39.10;21.90;;;;;;;4.03;56.21;99444.47;4860397;28;101296;-76
2021/03/11 09:30:37;;;;;;;41.60;23.53;;;;;;;4.08;56.00;99439.19;4854506;28;101643;-77
2021/03/11 09:33:11;;;;;;;39.77;22.30;;;;;;;4.14;55.74;99422.63;4876801;28;96795;-77
2021/03/11 09:35:37;;;;;;;40.53;22.47;;;;;;;4.11;55.65;99422.69;4858093;28;97481;-77
2021/03/11 09:38:04;;;;;;;42.93;23.10;;;;;;;4.18;55.37;99409.50;4859022;28;98063;-77
2021/03/11 09:40:40;;;;;;;37.57;22.20;;;;;;;4.18;55.61;99406.91;4850147;29;100843;-77
2021/03/11 09:43:13;;;;;;;35.83;20.80;;;;;;;4.23;55.68;99422.41;4850249;28;96759;-77
2021/03/11 09:45:58;;;;;;;39.90;22.37;;;;;;;4.28;56.30;99416.22;4865625;28;97085;-77
2021/03/11 09:48:32;;;;;;;37.60;21.90;;;;;;;4.35;56.31;99422.13;4858377;28;101470;-81
2021/03/11 09:51:02;;;;;;;37.30;21.83;;;;;;;4.50;56.33;99406.16;4872481;28;98549;-78
2021/03/11 09:53:33;;;;;;;37.00;21.37;;;;;;;4.63;55.91;99406.75;4891466;28;96724;-80
2021/03/11 09:55:59;;;;;;;39.77;21.40;;;;;;;4.71;55.98;99410.00;4857656;28;98516;-78
2021/03/11 09:58:25;;;;;;;35.27;21.13;;;;;;;4.76;56.06;99399.47;4869255;28;97882;-81
2021/03/11 10:00:50;;;;;;;34.33;20.13;;;;;;;4.91;55.47;99396.50;4854962;28;98163;-77
2021/03/11 10:03:30;;;;;;;31.13;19.13;;;;;;;4.96;55.07;99397.22;4858596;28;97112;-77
2021/03/11 10:05:56;;;;;;;28.77;17.83;;;;;;;4.99;54.89;99385.91;4855268;28;96815;-77
2021/03/11 10:08:40;;;;;;;30.47;18.10;;;;;;;5.08;54.10;99397.81;4856760;28;97423;-77
2021/03/11 10:11:17;;;;;;;31.07;19.70;;;;;;;5.15;53.94;99397.63;4855114;28;101499;-77
2021/03/11 10:13:53;;;;;;;30.00;18.67;;;;;;;5.15;54.04;99389.81;4863124;28;97267;-77
2021/03/11 10:16:38;;;;;;;26.97;18.10;;;;;;;5.22;53.82;99385.28;4836113;28;97294;-77
2021/03/11 10:19:36;;;;;;;31.23;18.70;;;;;;;5.37;53.19;99376.22;4833984;28;101556;-77
2021/03/11 10:22:03;;;;;;;27.37;18.10;;;;;;;5.40;53.22;99369.16;4826868;28;101873;-77
2021/03/11 10:24:49;;;;;;;29.23;18.63;;;;;;;5.39;53.90;99359.66;4878976;28;96754;-80
2021/03/11 10:27:28;;;;;;;34.53;19.80;;;;;;;5.40;54.32;99350.94;4858445;28;97224;-76
2021/03/11 10:30:03;;;;;;;29.37;18.67;;;;;;;5.41;54.35;99342.25;4858101;28;98038;-76
2021/03/11 10:32:29;;;;;;;29.23;18.80;;;;;;;5.46;54.54;99339.50;4853700;28;101512;-80
2021/03/11 10:34:54;;;;;;;27.90;18.30;;;;;;;5.34;54.21;99335.50;4857720;28;97296;-76
2021/03/11 10:37:29;;;;;;;27.33;18.37;;;;;;;5.38;54.62;99344.94;4858853;28;97231;-76
2021/03/11 10:39:57;;;;;;;30.03;18.10;;;;;;;5.34;54.49;99339.84;4843295;29;97250;-76
2021/03/11 10:42:23;;;;;;;29.27;18.97;;;;;;;5.32;54.37;99341.63;4857793;28;97956;-76
2021/03/11 10:44:58;;;;;;;28.73;18.07;;;;;;;5.34;54.84;99342.47;4840993;28;97280;-76
2021/03/11 10:47:23;;;;;;;27.13;17.50;;;;;;;5.32;55.02;99349.44;4847840;28;96916;-77
2021/03/11 10:49:49;;;;;;;33.73;19.63;;;;;;;5.29;55.03;99341.72;4842170;28;101537;-77
2021/03/11 10:52:18;;;;;;;29.77;19.20;;;;;;;5.18;55.39;99344.66;4877316;28;101458;-77
2021/03/11 10:54:44;;;;;;;33.80;19.23;;;;;;;5.04;55.64;99332.00;4861999;28;97266;-78
2021/03/11 10:57:18;;;;;;;28.93;18.80;;;;;;;5.12;55.37;99313.56;4847377;28;97621;-78
2021/03/11 11:00:04;;;;;;;28.70;18.90;;;;;;;5.10;55.60;99326.63;4854922;28;101816;-77
2021/03/11 11:02:30;;;;;;;29.60;17.60;;;;;;;5.04;55.77;99308.59;4855601;28;100521;-81
2021/03/11 11:04:58;;;;;;;32.60;18.20;;;;;;;5.02;55.95;99286.13;4855572;28;97996;-80
2021/03/11 11:07:25;;;;;;;30.30;20.00;;;;;;;5.12;55.79;99295.34;4836908;28;97247;-76
2021/03/11 11:09:52;;;;;;;32.73;20.30;;;;;;;5.11;56.29;99288.47;4854721;28;98440;-77
2021/03/11 11:12:19;;;;;;;35.27;20.57;;;;;;;5.16;56.46;99284.84;4855005;28;97473;-76
2021/03/11 11:14:46;;;;;;;35.23;20.93;;;;;;;5.22;56.69;99276.84;4867077;28;98077;-76
2021/03/11 11:17:12;;;;;;;31.83;19.97;;;;;;;5.25;57.15;99262.06;4856813;28;96729;-76
2021/03/11 11:19:38;;;;;;;32.40;19.23;;;;;;;5.20;56.67;99256.97;4861816;28;100480;-80
2021/03/11 11:22:05;;;;;;;28.43;18.20;;;;;;;5.18;57.06;99253.59;4869646;28;97318;-79
2021/03/11 11:24:31;;;;;;;31.80;18.90;;;;;;;5.15;56.62;99261.47;4858294;28;96843;-81
2021/03/11 11:26:57;;;;;;;34.17;20.73;;;;;;;5.12;56.92;99261.53;4857220;28;97018;-76